createdAt,value
2023-02-13T00:00:30.700Z,11.7
2023-02-13T00:01:47.010Z,12.6
2023-02-13T00:03:03.293Z,11.4
2023-02-13T00:04:18.600Z,12.8
2023-02-13T00:05:34.893Z,11.9
2023-02-13T00:06:51.191Z,10.6
2023-02-13T00:08:07.473Z,10.9
2023-02-13T00:09:23.784Z,11.5
2023-02-13T00:10:40.065Z,11.8
2023-02-13T00:11:56.000Z,10.8
2023-02-13T00:13:12.652Z,11.1
2023-02-13T00:14:28.939Z,11.5
2023-02-13T00:15:45.243Z,11.6
2023-02-13T00:17:01.534Z,11.5
2023-02-13T00:18:17.835Z,11.2
2023-02-13T00:19:34.121Z,11.2
2023-02-13T00:20:50.409Z,11.4
2023-02-13T00:22:05.716Z,11.7
2023-02-13T00:23:22.015Z,10.9
2023-02-13T00:24:38.304Z,11.4
2023-02-13T00:25:54.610Z,11.3
2023-02-13T00:27:10.893Z,11.9
2023-02-13T00:28:27.198Z,10.8
2023-02-13T00:29:43.493Z,12.7
2023-02-13T00:30:59.781Z,11.7
2023-02-13T00:32:16.080Z,11.5
2023-02-13T00:33:32.366Z,12.1
2023-02-13T00:34:48.661Z,12.3
2023-02-13T00:36:04.956Z,11.8
2023-02-13T00:37:21.236Z,11.6
2023-02-13T00:38:36.553Z,12.1
2023-02-13T00:39:52.849Z,11.6
2023-02-13T00:41:09.143Z,12.5
2023-02-13T00:42:25.438Z,11.7
2023-02-13T00:43:41.728Z,11.6
2023-02-13T00:44:58.031Z,11.7
2023-02-13T00:46:14.322Z,12.1
2023-02-13T00:47:30.601Z,11.4
2023-02-13T00:48:46.897Z,12.8
2023-02-13T00:50:03.188Z,12.7
2023-02-13T00:51:19.482Z,12.8
2023-02-13T00:52:35.793Z,12.6
2023-02-13T00:53:52.071Z,11.9
2023-02-13T00:55:07.378Z,12.7
2023-02-13T00:56:23.700Z,12.1
2023-02-13T00:57:39.982Z,12.9
2023-02-13T00:58:56.274Z,11.8
2023-02-13T01:00:12.000Z,12.2
2023-02-13T01:01:28.849Z,12.4
2023-02-13T01:02:45.142Z,11.9
2023-02-13T01:04:01.448Z,13.4
2023-02-13T01:05:17.726Z,11.7
2023-02-13T01:06:34.024Z,12.3
2023-02-13T01:07:50.321Z,13.3
2023-02-13T01:09:06.607Z,13.4
2023-02-13T01:10:22.914Z,12.9
2023-02-13T01:11:38.000Z,12.7
2023-02-13T01:12:54.522Z,14.4
2023-02-13T01:14:10.801Z,13.3
2023-02-13T01:15:27.091Z,13
2023-02-13T01:16:43.411Z,12.7
2023-02-13T01:17:59.695Z,12.9
2023-02-13T01:19:15.992Z,14.3
2023-02-13T01:20:32.278Z,13.5
2023-02-13T01:21:48.582Z,13.2
2023-02-13T01:23:04.857Z,13.6
2023-02-13T01:24:21.155Z,12.9
2023-02-13T01:25:37.450Z,12.9
2023-02-13T01:26:53.746Z,14.5
2023-02-13T01:28:09.043Z,13.8
2023-02-13T01:29:25.353Z,14.2
2023-02-13T01:30:41.643Z,13.4
2023-02-13T01:31:57.930Z,14.9
2023-02-13T01:33:14.230Z,13.9
2023-02-13T01:34:30.523Z,13.3
2023-02-13T01:35:46.807Z,13.3
2023-02-13T01:37:03.106Z,14.3
2023-02-13T01:38:19.407Z,14.2
2023-02-13T01:39:35.699Z,14.8
2023-02-13T01:40:51.981Z,13.4
2023-02-13T01:42:08.291Z,13.6
2023-02-13T01:43:24.577Z,14.1
2023-02-13T01:44:39.889Z,14.6
2023-02-13T01:45:56.178Z,14.2
2023-02-13T01:47:12.465Z,14.9
2023-02-13T01:48:28.771Z,13.2
2023-02-13T01:49:45.054Z,14.2
2023-02-13T01:51:01.356Z,14.2
2023-02-13T01:52:17.644Z,14
2023-02-13T01:53:33.951Z,15
2023-02-13T01:54:50.244Z,14.8
2023-02-13T01:56:06.520Z,13.8
2023-02-13T01:57:22.820Z,14
2023-02-13T01:58:39.123Z,13.8
2023-02-13T01:59:55.424Z,13.9
2023-02-13T02:01:10.714Z,13.6
2023-02-13T02:02:27.015Z,13
2023-02-13T02:03:43.309Z,14.7
2023-02-13T02:04:59.591Z,14.5
2023-02-13T02:06:15.902Z,14.9
2023-02-13T02:07:32.181Z,13.5
2023-02-13T02:08:48.474Z,14.4
2023-02-13T02:10:04.789Z,13.3
2023-02-13T02:11:21.076Z,13.3
2023-02-13T02:12:37.354Z,14.2
2023-02-13T02:13:53.657Z,13.9
2023-02-13T02:15:09.956Z,14
2023-02-13T02:16:26.248Z,14.2
2023-02-13T02:17:42.538Z,13.5
2023-02-13T02:18:57.852Z,13.8
2023-02-13T02:20:14.146Z,14.9
2023-02-13T02:21:30.425Z,14.4
2023-02-13T02:22:46.716Z,14.6
2023-02-13T02:24:03.011Z,14.5
2023-02-13T02:25:19.313Z,14.3
2023-02-13T02:26:35.601Z,15.6
2023-02-13T02:27:51.888Z,13.7
2023-02-13T02:29:08.184Z,14.5
2023-02-13T02:30:24.494Z,14.4
2023-02-13T02:31:40.788Z,14.2
2023-02-13T02:32:57.088Z,14
2023-02-13T02:34:13.357Z,14.7
2023-02-13T02:35:29.783Z,14.9
2023-02-13T02:36:46.086Z,14.1
2023-02-13T02:38:02.367Z,15.2
2023-02-13T02:39:18.661Z,14.6
2023-02-13T02:40:34.956Z,14.9
2023-02-13T02:41:51.245Z,15.1
2023-02-13T02:43:07.545Z,13.8
2023-02-13T02:44:23.829Z,14.1
2023-02-13T02:45:40.129Z,13.5
2023-02-13T02:46:56.431Z,14.1
2023-02-13T02:48:12.721Z,14.4
2023-02-13T02:49:29.013Z,14.7
2023-02-13T02:50:45.295Z,13.8
2023-02-13T02:52:00.606Z,13.5
2023-02-13T02:53:16.898Z,13.3
2023-02-13T02:54:33.193Z,13.1
2023-02-13T02:55:49.497Z,13.1
2023-02-13T02:57:05.801Z,13.3
2023-02-13T02:58:22.072Z,12.9
2023-02-13T02:59:38.372Z,13.5
2023-02-13T03:00:54.671Z,12.8
2023-02-13T03:02:10.954Z,13.6
2023-02-13T03:03:27.249Z,13.5
2023-02-13T03:04:43.544Z,14
2023-02-13T03:05:59.836Z,13.3
2023-02-13T03:07:16.127Z,13.7
2023-02-13T03:08:32.438Z,13
2023-02-13T03:09:47.748Z,13.6
2023-02-13T03:11:04.043Z,13
2023-02-13T03:12:20.322Z,13.1
2023-02-13T03:13:36.613Z,12.7
2023-02-13T03:14:52.918Z,12.8
2023-02-13T03:16:09.214Z,12.8
2023-02-13T03:17:25.499Z,13.3
2023-02-13T03:18:41.798Z,12.1
2023-02-13T03:19:58.094Z,12.2
2023-02-13T03:21:14.386Z,11.5
2023-02-13T03:22:30.672Z,12.4
2023-02-13T03:23:46.981Z,12.1
2023-02-13T03:25:03.265Z,12.3
2023-02-13T03:26:18.568Z,12.5
2023-02-13T03:27:34.870Z,12.6
2023-02-13T03:28:51.166Z,12.6
2023-02-13T03:30:06.000Z,11.8
2023-02-13T03:31:22.770Z,12
2023-02-13T03:32:39.068Z,11.5
2023-02-13T03:33:55.363Z,11.7
2023-02-13T03:35:11.656Z,11.8
2023-02-13T03:36:27.954Z,11.3
2023-02-13T03:37:44.240Z,11.1
2023-02-13T03:39:00.520Z,11.9
2023-02-13T03:40:16.832Z,11.5
2023-02-13T03:41:33.114Z,12.4
2023-02-13T03:42:49.411Z,11.1
2023-02-13T03:44:05.710Z,11
2023-02-13T03:45:22.002Z,11.6
2023-02-13T03:46:37.320Z,10.8
2023-02-13T03:47:53.592Z,10.7
2023-02-13T03:49:09.907Z,10.7
2023-02-13T03:50:26.207Z,11.4
2023-02-13T03:51:42.474Z,11.3
2023-02-13T03:52:58.780Z,11.3
2023-02-13T03:54:15.072Z,11.6
2023-02-13T03:55:31.354Z,10.8
2023-02-13T03:56:47.661Z,11.1
2023-02-13T03:58:03.942Z,10
2023-02-13T03:59:20.246Z,10.1
2023-02-13T04:00:36.539Z,10.9
2023-02-13T04:01:52.837Z,11
2023-02-13T04:03:08.142Z,10.5
2023-02-13T04:04:24.441Z,10.4
2023-02-13T04:05:40.742Z,9.9
2023-02-13T04:06:57.024Z,10.4
2023-02-13T04:08:13.312Z,10.3
2023-02-13T04:09:29.619Z,9.7
2023-02-13T04:10:45.895Z,10.6
2023-02-13T04:12:02.197Z,9.9
2023-02-13T04:13:18.489Z,9.3
2023-02-13T04:14:34.777Z,8.7
2023-02-13T04:15:51.086Z,9
2023-02-13T04:17:07.360Z,8.6
2023-02-13T04:18:23.660Z,8.9
2023-02-13T04:19:38.967Z,9
2023-02-13T04:20:55.270Z,8.9
2023-02-13T04:22:11.568Z,8.6
2023-02-13T04:23:27.853Z,8
2023-02-13T04:24:44.144Z,8.8
2023-02-13T04:26:00.437Z,9.4
2023-02-13T04:27:16.740Z,8.2
2023-02-13T04:28:33.040Z,8.9
2023-02-13T04:29:49.325Z,9.3
2023-02-13T04:31:05.613Z,8.8
2023-02-13T04:32:21.914Z,8.1
2023-02-13T04:33:38.199Z,8.6
2023-02-13T04:34:54.510Z,7.9
2023-02-13T04:36:09.820Z,7.6
2023-02-13T04:37:26.108Z,6.9
2023-02-13T04:38:42.399Z,6.8
2023-02-13T04:39:58.699Z,7.2
2023-02-13T04:41:14.986Z,6.8
2023-02-13T04:42:31.283Z,6.4
2023-02-13T04:43:47.572Z,6.6
2023-02-13T04:45:03.879Z,7.7
2023-02-13T04:46:20.166Z,7.2
2023-02-13T04:47:36.442Z,6.7
2023-02-13T04:48:52.743Z,6.9
2023-02-13T04:50:09.029Z,6.6
2023-02-13T04:51:25.334Z,6.7
2023-02-13T04:52:40.648Z,6.8
2023-02-13T04:53:56.940Z,6.8
2023-02-13T04:55:13.231Z,7
2023-02-13T04:56:29.513Z,7.3
2023-02-13T04:57:45.832Z,6.8
2023-02-13T04:59:02.112Z,7.8
2023-02-13T05:00:18.407Z,6.3
2023-02-13T05:01:34.694Z,7.3
2023-02-13T05:02:50.981Z,7.2
2023-02-13T05:04:07.282Z,8.4
2023-02-13T05:05:23.582Z,7.2
2023-02-13T05:06:39.860Z,6.5
2023-02-13T05:07:56.160Z,7.2
2023-02-13T05:09:12.571Z,7.1
2023-02-13T05:10:28.880Z,7.4
2023-02-13T05:11:45.160Z,7.9
2023-02-13T05:13:01.452Z,7.4
2023-02-13T05:14:17.757Z,7
2023-02-13T05:15:34.037Z,7.5
2023-02-13T05:16:50.349Z,7.2
2023-02-13T05:18:06.646Z,7.2
2023-02-13T05:19:22.931Z,7.4
2023-02-13T05:20:39.216Z,7.1
2023-02-13T05:21:55.524Z,7.7
2023-02-13T05:23:11.801Z,7
2023-02-13T05:24:28.107Z,7.3
2023-02-13T05:25:43.405Z,6.8
2023-02-13T05:26:59.707Z,6.2
2023-02-13T05:28:15.993Z,6.1
2023-02-13T05:29:32.282Z,6.6
2023-02-13T05:30:48.588Z,6.2
2023-02-13T05:32:04.884Z,6.4
2023-02-13T05:33:21.167Z,6.1
2023-02-13T05:34:37.472Z,5.9
2023-02-13T05:35:53.769Z,5.7
2023-02-13T05:37:10.073Z,6.8
2023-02-13T05:38:26.343Z,5.9
2023-02-13T05:39:42.642Z,6.5
2023-02-13T05:40:58.932Z,6.2
2023-02-13T05:42:14.251Z,6.5
2023-02-13T05:43:30.527Z,5.9
2023-02-13T05:44:46.831Z,5.7
2023-02-13T05:46:03.130Z,6.2
2023-02-13T05:47:19.417Z,5.8
2023-02-13T05:48:35.714Z,5.5
2023-02-13T05:49:52.005Z,6
2023-02-13T05:51:08.304Z,5.8
2023-02-13T05:52:24.600Z,5.4
2023-02-13T05:53:40.883Z,5.6
2023-02-13T05:54:57.178Z,5.8
2023-02-13T05:56:13.465Z,6.3
2023-02-13T05:57:29.715Z,5.7
2023-02-13T05:58:45.036Z,5.9
2023-02-13T06:00:01.324Z,6.2
2023-02-13T06:01:17.559Z,6.2
2023-02-13T06:02:33.870Z,5.8
2023-02-13T06:03:50.152Z,5.5
2023-02-13T06:05:06.444Z,5.9
2023-02-13T06:06:22.739Z,5.7
2023-02-13T06:07:39.003Z,5.5
2023-02-13T06:08:55.297Z,5.8
2023-02-13T06:10:11.529Z,5.6
2023-02-13T06:11:27.770Z,5.5
2023-02-13T06:12:44.019Z,5.7
2023-02-13T06:14:00.279Z,5.6
2023-02-13T06:15:15.525Z,5.9
2023-02-13T06:16:31.757Z,5.5
2023-02-13T06:17:48.013Z,6.1
2023-02-13T06:19:04.246Z,5.6
2023-02-13T06:20:20.485Z,5.5
2023-02-13T06:21:36.731Z,5.7
2023-02-13T06:22:52.960Z,5.4
2023-02-13T06:24:09.221Z,5.4
2023-02-13T06:25:25.461Z,5.3
2023-02-13T06:26:41.706Z,5.8
2023-02-13T06:27:57.934Z,5.4
2023-02-13T06:29:14.151Z,5.4
2023-02-13T06:30:30.413Z,5.8
2023-02-13T06:31:45.657Z,5.5
2023-02-13T06:33:01.894Z,5.7
2023-02-13T06:34:18.142Z,5.9
2023-02-13T06:35:34.370Z,5.7
2023-02-13T06:36:50.617Z,6.2
2023-02-13T06:38:06.848Z,6.4
2023-02-13T06:39:23.094Z,6
2023-02-13T06:40:39.339Z,5.6
2023-02-13T06:41:55.595Z,5.5
2023-02-13T06:43:11.812Z,5.9
2023-02-13T06:44:28.059Z,5.8
2023-02-13T06:45:44.303Z,6.4
2023-02-13T06:47:00.523Z,5.7
2023-02-13T06:48:15.793Z,6.1
2023-02-13T06:49:32.024Z,5.9
2023-02-13T06:50:48.257Z,5.6
2023-02-13T06:52:04.500Z,6.4
2023-02-13T06:53:20.743Z,6.1
2023-02-13T06:54:36.992Z,5.9
2023-02-13T06:55:53.218Z,5.6
2023-02-13T06:57:09.473Z,5.7
2023-02-13T06:58:25.710Z,5.3
2023-02-13T06:59:41.965Z,5.6
2023-02-13T07:00:58.207Z,6
2023-02-13T07:02:14.419Z,5.1
2023-02-13T07:03:30.675Z,5.6
2023-02-13T07:04:45.934Z,5.7
2023-02-13T07:06:02.152Z,6
2023-02-13T07:07:18.410Z,6
2023-02-13T07:08:34.646Z,5.6
2023-02-13T07:09:50.887Z,6.1
2023-02-13T07:11:07.119Z,5.9
2023-02-13T07:12:23.354Z,5.4
2023-02-13T07:13:39.597Z,6.4
2023-02-13T07:14:55.835Z,5.3
2023-02-13T07:16:12.101Z,6.1
2023-02-13T07:17:28.311Z,6.2
2023-02-13T07:18:44.549Z,6.5
2023-02-13T07:20:00.798Z,6
2023-02-13T07:21:16.043Z,6.2
2023-02-13T07:22:32.280Z,6
2023-02-13T07:23:48.524Z,6.2
2023-02-13T07:25:04.781Z,6.5
2023-02-13T07:26:21.002Z,7
2023-02-13T07:27:37.263Z,6.6
2023-02-13T07:28:53.501Z,6.2
2023-02-13T07:30:09.738Z,6.5
2023-02-13T07:31:25.985Z,6.8
2023-02-13T07:32:42.206Z,6.5
2023-02-13T07:33:58.443Z,6.3
2023-02-13T07:35:14.699Z,6.4
2023-02-13T07:36:30.922Z,5.9
2023-02-13T07:37:46.178Z,5.6
2023-02-13T07:39:02.439Z,5.9
2023-02-13T07:40:18.658Z,5.2
2023-02-13T07:41:34.897Z,6.3
2023-02-13T07:42:51.135Z,6.2
2023-02-13T07:44:07.375Z,5.3
2023-02-13T07:45:22.654Z,5.7
2023-02-13T07:46:38.903Z,5.3
2023-02-13T07:47:55.133Z,5.7
2023-02-13T07:49:11.372Z,5.5
2023-02-13T07:50:27.627Z,5.5
2023-02-13T07:51:43.841Z,6.2
2023-02-13T07:53:00.100Z,5.5
2023-02-13T07:54:16.341Z,5.4
2023-02-13T07:55:32.559Z,5.5
2023-02-13T07:56:48.805Z,5.4
2023-02-13T07:58:05.043Z,5.6
2023-02-13T07:59:21.285Z,5.6
2023-02-13T08:00:37.526Z,5.1
2023-02-13T08:01:52.791Z,5.6
2023-02-13T08:03:09.013Z,5.8
2023-02-13T08:04:25.255Z,6.1
2023-02-13T08:05:41.488Z,6.5
2023-02-13T08:06:57.738Z,6.5
2023-02-13T08:08:13.968Z,6.7
2023-02-13T08:09:30.205Z,6.5
2023-02-13T08:10:46.452Z,6.2
2023-02-13T08:12:02.688Z,5.9
2023-02-13T08:13:18.929Z,5.3
2023-02-13T08:14:35.171Z,5.7
2023-02-13T08:15:51.435Z,5.9
2023-02-13T08:17:07.657Z,6.2
2023-02-13T08:18:22.915Z,5.4
2023-02-13T08:19:39.150Z,5.8
2023-02-13T08:20:55.399Z,6
2023-02-13T08:22:11.649Z,5.6
2023-02-13T08:23:27.859Z,5.7
2023-02-13T08:24:44.129Z,5.5
2023-02-13T08:26:00.342Z,6.2
2023-02-13T08:27:16.585Z,5.6
2023-02-13T08:28:32.849Z,5.5
2023-02-13T08:29:49.072Z,6.3
2023-02-13T08:31:05.307Z,6.2
2023-02-13T08:32:21.541Z,6.6
2023-02-13T08:33:37.794Z,6.6
2023-02-13T08:34:53.036Z,6.9
2023-02-13T08:36:09.301Z,6.5
2023-02-13T08:37:25.520Z,5.9
2023-02-13T08:38:41.786Z,5.9
2023-02-13T08:39:57.988Z,6.2
2023-02-13T08:41:14.254Z,6.1
2023-02-13T08:42:30.481Z,7.1
2023-02-13T08:43:46.743Z,5.7
2023-02-13T08:45:02.000Z,6.2
2023-02-13T08:46:19.208Z,6.8
2023-02-13T08:47:35.452Z,5.9
2023-02-13T08:48:51.671Z,6
2023-02-13T08:50:07.915Z,5.8
2023-02-13T08:51:23.169Z,6.5
2023-02-13T08:52:39.424Z,6.6
2023-02-13T08:53:55.680Z,6.8
2023-02-13T08:55:11.889Z,6.2
2023-02-13T08:56:28.146Z,6.2
2023-02-13T08:57:44.360Z,5.8
2023-02-13T08:59:00.603Z,6.1
2023-02-13T09:00:16.847Z,5.9
2023-02-13T09:01:33.081Z,6.1
2023-02-13T09:02:49.323Z,5.5
2023-02-13T09:04:05.595Z,5.9
2023-02-13T09:05:21.815Z,5.5
2023-02-13T09:06:38.062Z,6.4
2023-02-13T09:07:53.311Z,5.2
2023-02-13T09:09:09.535Z,6
2023-02-13T09:10:25.776Z,5.6
2023-02-13T09:11:42.030Z,6.1
2023-02-13T09:12:58.288Z,5.9
2023-02-13T09:14:14.519Z,5.7
2023-02-13T09:15:30.750Z,5.6
2023-02-13T09:16:46.996Z,5.3
2023-02-13T09:18:03.247Z,5.7
2023-02-13T09:19:19.454Z,5.5
2023-02-13T09:20:35.700Z,5.7
2023-02-13T09:21:51.937Z,5.5
2023-02-13T09:23:08.186Z,5.3
2023-02-13T09:24:23.444Z,5.3
2023-02-13T09:25:39.678Z,6.1
2023-02-13T09:26:55.929Z,5.4
2023-02-13T09:28:12.149Z,5.9
2023-02-13T09:29:28.388Z,6.3
2023-02-13T09:30:44.648Z,6
2023-02-13T09:32:00.887Z,6.3
2023-02-13T09:33:17.000Z,6
2023-02-13T09:34:33.368Z,5.8
2023-02-13T09:35:49.610Z,5.8
2023-02-13T09:37:05.843Z,6
2023-02-13T09:38:22.072Z,5.9
2023-02-13T09:39:38.336Z,6.1
2023-02-13T09:40:53.561Z,5.8
2023-02-13T09:42:09.825Z,6.2
2023-02-13T09:43:26.055Z,5.8
2023-02-13T09:44:42.288Z,5.9
2023-02-13T09:45:58.532Z,6.4
2023-02-13T09:47:14.777Z,5.8
2023-02-13T09:48:31.025Z,6.9
2023-02-13T09:49:47.259Z,6.5
2023-02-13T09:51:03.502Z,6.6
2023-02-13T09:52:19.724Z,5.9
2023-02-13T09:53:35.986Z,6
2023-02-13T09:54:52.211Z,6
2023-02-13T09:56:08.437Z,6.6
2023-02-13T09:57:23.713Z,7.5
2023-02-13T09:58:39.944Z,6.6
2023-02-13T09:59:56.195Z,6.4
2023-02-13T10:01:12.416Z,6.8
2023-02-13T10:02:28.676Z,6.9
2023-02-13T10:03:44.925Z,6.9
2023-02-13T10:05:01.136Z,6.2
2023-02-13T10:06:17.382Z,6.3
2023-02-13T10:07:33.624Z,7.2
2023-02-13T10:08:49.870Z,7.2
2023-02-13T10:10:06.110Z,7.6
2023-02-13T10:11:22.361Z,6.7
2023-02-13T10:12:38.585Z,7.4
2023-02-13T10:13:53.831Z,7.2
2023-02-13T10:15:10.064Z,7.5
2023-02-13T10:16:26.307Z,7
2023-02-13T10:17:42.552Z,6.9
2023-02-13T10:18:58.792Z,7.6
2023-02-13T10:20:15.027Z,7
2023-02-13T10:21:31.281Z,8
2023-02-13T10:22:47.528Z,7.3
2023-02-13T10:24:03.745Z,8
2023-02-13T10:25:19.985Z,7.3
2023-02-13T10:26:36.223Z,6.6
2023-02-13T10:27:52.487Z,6.9
2023-02-13T10:29:08.716Z,6.9
2023-02-13T10:30:23.983Z,7.2
2023-02-13T10:31:40.217Z,6.6
2023-02-13T10:32:56.475Z,6.7
2023-02-13T10:34:12.705Z,7.9
2023-02-13T10:35:28.942Z,7.2
2023-02-13T10:36:45.167Z,7.7
2023-02-13T10:38:01.407Z,8
2023-02-13T10:39:17.640Z,8
2023-02-13T10:40:33.901Z,7.5
2023-02-13T10:41:50.148Z,8.3
2023-02-13T10:43:06.366Z,7.8
2023-02-13T10:44:22.598Z,7.7
2023-02-13T10:45:38.865Z,8.1
2023-02-13T10:46:54.093Z,8.3
2023-02-13T10:48:10.339Z,8.5
2023-02-13T10:49:26.568Z,7.8
2023-02-13T10:50:42.831Z,8.5
2023-02-13T10:51:59.064Z,8.4
2023-02-13T10:53:15.287Z,8.9
2023-02-13T10:54:31.541Z,8.2
2023-02-13T10:55:47.776Z,8
2023-02-13T10:57:04.020Z,8.3
2023-02-13T10:58:20.273Z,8.9
2023-02-13T10:59:36.505Z,8.2
2023-02-13T11:00:52.726Z,8
2023-02-13T11:02:08.971Z,7.9
2023-02-13T11:03:24.253Z,8
2023-02-13T11:04:40.487Z,8.1
2023-02-13T11:05:56.719Z,7.8
2023-02-13T11:07:12.959Z,7.6
2023-02-13T11:08:29.223Z,8.3
2023-02-13T11:09:45.000Z,8.8
2023-02-13T11:11:01.678Z,8.1
2023-02-13T11:12:17.932Z,8.4
2023-02-13T11:13:34.170Z,8.1
2023-02-13T11:14:50.406Z,8
2023-02-13T11:16:06.633Z,7.8
2023-02-13T11:17:22.858Z,7.4
2023-02-13T11:18:39.096Z,7.3
2023-02-13T11:19:54.377Z,6.7
2023-02-13T11:21:10.619Z,7.3
2023-02-13T11:22:26.843Z,7.1
2023-02-13T11:23:43.083Z,6.8
2023-02-13T11:24:59.315Z,7.4
2023-02-13T11:26:15.552Z,7.1
2023-02-13T11:27:31.813Z,7.5
2023-02-13T11:28:48.058Z,6.9
2023-02-13T11:30:04.273Z,7.2
2023-02-13T11:31:20.525Z,6.8
2023-02-13T11:32:36.761Z,7.6
2023-02-13T11:33:53.013Z,7.1
2023-02-13T11:35:09.254Z,6.7
2023-02-13T11:36:24.485Z,6.7
2023-02-13T11:37:40.737Z,7
2023-02-13T11:38:56.968Z,6.5
2023-02-13T11:40:13.217Z,6.7
2023-02-13T11:41:29.474Z,6.9
2023-02-13T11:42:45.706Z,6.8
2023-02-13T11:44:01.928Z,7.1
2023-02-13T11:45:18.166Z,6.6
2023-02-13T11:46:34.405Z,6.4
2023-02-13T11:47:50.667Z,5.8
2023-02-13T11:49:06.890Z,6.1
2023-02-13T11:50:23.157Z,6.9
2023-02-13T11:51:39.367Z,7
2023-02-13T11:52:54.624Z,7.1
2023-02-13T11:54:10.857Z,5.9
2023-02-13T11:55:27.097Z,6.7
2023-02-13T11:56:43.340Z,6.4
2023-02-13T11:57:59.576Z,6.7
2023-02-13T11:59:15.855Z,6.9
2023-02-13T12:00:31.095Z,6.5
2023-02-13T12:01:47.348Z,6.5
2023-02-13T12:03:03.557Z,7
2023-02-13T12:04:19.820Z,7.8
2023-02-13T12:05:36.051Z,6.9
2023-02-13T12:06:52.281Z,8
2023-02-13T12:08:08.538Z,7.9
2023-02-13T12:09:24.789Z,7.6
2023-02-13T12:10:41.000Z,7.7
2023-02-13T12:11:57.249Z,7.8
2023-02-13T12:13:13.477Z,8.5
2023-02-13T12:14:29.719Z,7.6
2023-02-13T12:15:45.955Z,7.6
2023-02-13T12:17:01.210Z,7.5
2023-02-13T12:18:17.473Z,7.7
2023-02-13T12:19:33.691Z,7
2023-02-13T12:20:49.942Z,7.1
2023-02-13T12:22:06.168Z,7
2023-02-13T12:23:22.411Z,7
2023-02-13T12:24:38.653Z,7.1
2023-02-13T12:25:54.889Z,6.2
2023-02-13T12:27:11.139Z,6.2
2023-02-13T12:28:27.372Z,5.5
2023-02-13T12:29:43.629Z,5.3
2023-02-13T12:30:59.857Z,5.5
2023-02-13T12:32:16.090Z,5.5
2023-02-13T12:33:31.341Z,5.6
2023-02-13T12:34:47.589Z,6.4
2023-02-13T12:36:03.846Z,6.3
2023-02-13T12:37:20.078Z,5.9
2023-02-13T12:38:36.316Z,6.5
2023-02-13T12:39:52.542Z,6.5
2023-02-13T12:41:08.786Z,6.1
2023-02-13T12:42:25.043Z,6.6
2023-02-13T12:43:41.283Z,6.1
2023-02-13T12:44:57.514Z,6.5
2023-02-13T12:46:13.749Z,6.5
2023-02-13T12:47:30.016Z,6.3
2023-02-13T12:48:46.219Z,6.5
2023-02-13T12:50:01.515Z,6.8
2023-02-13T12:51:17.739Z,6.1
2023-02-13T12:52:33.986Z,8.2
2023-02-13T12:53:50.199Z,5.5
2023-02-13T12:55:06.455Z,5.4
2023-02-13T12:56:22.000Z,5.3
2023-02-13T12:57:38.909Z,4.4
2023-02-13T12:58:55.158Z,4.5
2023-02-13T13:00:11.413Z,4.9
2023-02-13T13:01:27.645Z,4.2
2023-02-13T13:02:43.868Z,4.4
2023-02-13T13:04:00.120Z,4.7
2023-02-13T13:05:16.346Z,4.5
2023-02-13T13:06:31.626Z,4.8
2023-02-13T13:07:47.853Z,4.7
2023-02-13T13:09:04.099Z,4.6
2023-02-13T13:10:20.329Z,4.6
2023-02-13T13:11:36.572Z,4.6
2023-02-13T13:12:52.830Z,4.8
2023-02-13T13:14:09.042Z,4.9
2023-02-13T13:15:25.313Z,4.5
2023-02-13T13:16:41.524Z,4.9
2023-02-13T13:17:57.787Z,4.6
2023-02-13T13:19:14.023Z,4.4
2023-02-13T13:20:30.279Z,4.8
2023-02-13T13:21:46.489Z,4.9
2023-02-13T13:23:01.763Z,5.1
2023-02-13T13:24:17.972Z,4.6
2023-02-13T13:25:34.213Z,4.4
2023-02-13T13:26:50.454Z,4.8
2023-02-13T13:28:06.719Z,4.4
2023-02-13T13:29:22.939Z,4.5
2023-02-13T13:30:39.197Z,4.1
2023-02-13T13:31:55.425Z,4.7
2023-02-13T13:33:11.655Z,4.2
2023-02-13T13:34:27.926Z,4.4
2023-02-13T13:35:44.164Z,4
2023-02-13T13:37:00.392Z,4.4
2023-02-13T13:38:16.611Z,4.6
2023-02-13T13:39:31.870Z,4.4
2023-02-13T13:40:48.112Z,4.4
2023-02-13T13:42:04.349Z,4.8
2023-02-13T13:43:20.582Z,4.4
2023-02-13T13:44:36.833Z,4.1
2023-02-13T13:45:53.099Z,4.7
2023-02-13T13:47:09.302Z,4.8
2023-02-13T13:48:25.553Z,4.5
2023-02-13T13:49:41.781Z,4.8
2023-02-13T13:50:58.045Z,4.5
2023-02-13T13:52:14.260Z,4.8
2023-02-13T13:53:30.507Z,5.2
2023-02-13T13:54:46.742Z,4.8
2023-02-13T13:56:01.998Z,5.4
2023-02-13T13:57:18.252Z,4.9
2023-02-13T13:58:34.480Z,5.2
2023-02-13T13:59:50.747Z,5
2023-02-13T14:01:06.987Z,5.2
2023-02-13T14:02:23.228Z,4.4
2023-02-13T14:03:39.461Z,5.1
2023-02-13T14:04:55.684Z,5.2
2023-02-13T14:06:11.910Z,5
2023-02-13T14:07:28.158Z,5.3
2023-02-13T14:08:44.404Z,5.5
2023-02-13T14:10:00.647Z,5.3
2023-02-13T14:11:16.879Z,4.7
2023-02-13T14:12:32.138Z,4.8
2023-02-13T14:13:48.394Z,5.3
2023-02-13T14:15:04.631Z,5.2
2023-02-13T14:16:20.845Z,5.5
2023-02-13T14:17:37.087Z,5.8
2023-02-13T14:18:53.324Z,5.2
2023-02-13T14:20:09.582Z,5.6
2023-02-13T14:21:25.842Z,5.7
2023-02-13T14:22:42.045Z,6
2023-02-13T14:23:58.312Z,6.3
2023-02-13T14:25:14.534Z,5.8
2023-02-13T14:26:30.761Z,5.4
2023-02-13T14:27:47.007Z,5.4
2023-02-13T14:29:02.288Z,5.9
2023-02-13T14:30:18.525Z,5.3
2023-02-13T14:31:34.746Z,6.6
2023-02-13T14:32:50.988Z,5.9
2023-02-13T14:34:07.249Z,6.6
2023-02-13T14:35:23.465Z,6.5
2023-02-13T14:36:39.735Z,6.6
2023-02-13T14:37:55.939Z,6
2023-02-13T14:39:12.176Z,6.1
2023-02-13T14:40:28.426Z,6
2023-02-13T14:41:44.660Z,6.3
2023-02-13T14:43:00.906Z,5.6
2023-02-13T14:44:17.165Z,5.9
2023-02-13T14:45:32.419Z,6
2023-02-13T14:46:48.634Z,5.8
2023-02-13T14:48:04.889Z,5.6
2023-02-13T14:49:21.152Z,5.5
2023-02-13T14:50:37.369Z,5.5
2023-02-13T14:51:53.594Z,5.6
2023-02-13T14:53:09.838Z,5.5
2023-02-13T14:54:26.115Z,5.5
2023-02-13T14:55:42.316Z,5.1
2023-02-13T14:56:58.584Z,5.1
2023-02-13T14:58:14.792Z,5.6
2023-02-13T14:59:31.061Z,4.8
2023-02-13T15:00:47.278Z,5.3
2023-02-13T15:02:02.556Z,5.5
2023-02-13T15:03:18.796Z,4.7
2023-02-13T15:04:35.043Z,4.9
2023-02-13T15:05:51.250Z,4.9
2023-02-13T15:07:07.489Z,5
2023-02-13T15:08:23.728Z,5.2
2023-02-13T15:09:39.998Z,4.5
2023-02-13T15:10:56.209Z,4.7
2023-02-13T15:12:12.453Z,4.9
2023-02-13T15:13:28.692Z,5.2
2023-02-13T15:14:44.947Z,4.8
2023-02-13T15:16:01.169Z,5.1
2023-02-13T15:17:17.411Z,5.2
2023-02-13T15:18:32.674Z,4.8
2023-02-13T15:19:48.901Z,4.9
2023-02-13T15:21:05.139Z,5.5
2023-02-13T15:22:21.386Z,4.9
2023-02-13T15:23:37.627Z,4.9
2023-02-13T15:24:53.873Z,4.7
2023-02-13T15:26:10.110Z,5.5
2023-02-13T15:27:26.341Z,4.8
2023-02-13T15:28:42.579Z,5.1
2023-02-13T15:29:58.817Z,4.8
2023-02-13T15:31:15.091Z,5
2023-02-13T15:32:31.321Z,5
2023-02-13T15:33:47.549Z,5.3
2023-02-13T15:35:02.819Z,5.1
2023-02-13T15:36:19.049Z,5.9
2023-02-13T15:37:35.276Z,5.4
2023-02-13T15:38:51.510Z,5.5
2023-02-13T15:40:07.783Z,5.7
2023-02-13T15:41:23.993Z,5.8
2023-02-13T15:42:40.232Z,5.7
2023-02-13T15:43:56.471Z,4.7
2023-02-13T15:45:12.726Z,4.9
2023-02-13T15:46:28.951Z,4.9
2023-02-13T15:47:45.189Z,4.9
2023-02-13T15:49:01.436Z,4.9
2023-02-13T15:50:17.682Z,4.7
2023-02-13T15:51:32.953Z,4.8
2023-02-13T15:52:49.175Z,4.6
2023-02-13T15:54:05.442Z,4.6
2023-02-13T15:55:21.641Z,4.9
2023-02-13T15:56:37.899Z,4.9
2023-02-13T15:57:54.128Z,5
2023-02-13T15:59:10.360Z,4.8
2023-02-13T16:00:26.612Z,5.1
2023-02-13T16:01:42.855Z,5.1
2023-02-13T16:02:59.080Z,5.2
2023-02-13T16:04:15.334Z,5.1
2023-02-13T16:05:31.603Z,5.3
2023-02-13T16:06:47.815Z,5.1
2023-02-13T16:08:03.099Z,4.9
2023-02-13T16:09:19.341Z,4.9
2023-02-13T16:10:35.576Z,5.6
2023-02-13T16:11:51.785Z,5
2023-02-13T16:13:08.012Z,5.2
2023-02-13T16:14:24.270Z,5.2
2023-02-13T16:15:39.553Z,5
2023-02-13T16:16:55.795Z,5
2023-02-13T16:18:12.034Z,5
2023-02-13T16:19:28.238Z,5
2023-02-13T16:20:44.478Z,5
2023-02-13T16:22:00.715Z,5.2
2023-02-13T16:23:17.001Z,5.2
2023-02-13T16:24:33.236Z,5
2023-02-13T16:25:49.441Z,4.8
2023-02-13T16:27:05.668Z,5.1
2023-02-13T16:28:21.908Z,4.9
2023-02-13T16:29:38.165Z,5.5
2023-02-13T16:30:54.436Z,5.4
2023-02-13T16:32:09.656Z,5.4
2023-02-13T16:33:25.940Z,6.2
2023-02-13T16:34:42.132Z,6.1
2023-02-13T16:35:58.418Z,6
2023-02-13T16:37:14.669Z,6.4
2023-02-13T16:38:31.008Z,6.8
2023-02-13T16:39:47.209Z,6.9
2023-02-13T16:41:03.501Z,5.8
2023-02-13T16:42:19.747Z,5.8
2023-02-13T16:43:36.080Z,6.9
2023-02-13T16:44:52.335Z,6.4
2023-02-13T16:46:08.630Z,8.8
2023-02-13T16:47:24.814Z,8
2023-02-13T16:48:40.072Z,7.5
2023-02-13T16:49:56.375Z,6.2
2023-02-13T16:51:12.710Z,6.9
2023-02-13T16:52:28.968Z,6.2
2023-02-13T16:53:45.301Z,5.9
2023-02-13T16:55:01.546Z,6.1
2023-02-13T16:56:17.900Z,5.7
2023-02-13T16:57:34.125Z,6.3
2023-02-13T16:58:50.417Z,6.8
2023-02-13T17:00:06.731Z,7.3
2023-02-13T17:01:23.023Z,7.7
2023-02-13T17:02:39.301Z,6.2
2023-02-13T17:03:55.659Z,6.8
2023-02-13T17:05:10.913Z,7.1
2023-02-13T17:06:27.197Z,10.6
2023-02-13T17:07:43.496Z,7.9
2023-02-13T17:08:59.787Z,6.7
2023-02-13T17:10:16.077Z,9.4
2023-02-13T17:11:32.373Z,13.9
2023-02-13T17:12:48.683Z,9.2
2023-02-13T17:14:05.012Z,7.8
2023-02-13T17:15:21.250Z,7.1
2023-02-13T17:16:37.553Z,7.3
2023-02-13T17:17:53.842Z,6.8
2023-02-13T17:19:10.201Z,6.5
2023-02-13T17:20:26.436Z,6.4
2023-02-13T17:21:41.789Z,6.5
2023-02-13T17:22:58.043Z,7
2023-02-13T17:24:14.379Z,6.8
2023-02-13T17:25:30.625Z,6.7
2023-02-13T17:26:46.966Z,7.3